Ridge, North Carolina
Current Conditions -  °F | °C
As of 2:54 PM on Thursday 27 Nov 2014 (Local Time) from KAKH Reporting Station
Broken Clouds Broken Clouds  
Wind Chill: 50°   Ceiling: 6500
Heat Index: 50°   Visibility: 10mi
Dew Point: 26°   Wind: 7mph
Humidity: 39%   Direction: NA
Pressure: 30.11"   Gusts: NA
Location:  35.2205°N, 81.2501°W
Report Text: KAKH 271954Z AUTO VRB06KT 10SM BKN065 10/M03 A3011 RMK AO2 SLP200 T01001033
Loading
Personal Weather Stations






























Interactive Weather Map New forecast layout! Learn more

10-Day Weather Forecast

Advertisements
Track Severe Weather on mobile